Time;durP1;ratioP1;P1;durP2;ratioP2;P2;SDS_P1;SDS_P2;PMS_P1;PMS_P2;Temp;Humidity;BMP_temperature;BMP_pressure;BME280_temperature;BME280_humidity;BME280_pressure;Samples;Min_cycle;Max_cycle;Signal;HPM_P1;HPM_P2
2023/09/13 00:01:40;;;;;;;18.55;12.98;;;;;;;;;;4963413;28;20280;-66
2023/09/13 00:04:06;;;;;;;18.25;13.25;;;;;;;;;;4963540;28;20586;-65
2023/09/13 00:06:31;;;;;;;17.35;13.52;;;;;;;;;;4985839;28;20274;-65
2023/09/13 00:08:56;;;;;;;16.80;13.82;;;;;;;;;;4980084;28;20203;-66
2023/09/13 00:11:22;;;;;;;20.63;15.55;;;;;;;;;;4982722;28;20194;-67
2023/09/13 00:13:47;;;;;;;19.00;14.98;;;;;;;;;;4991269;28;20306;-65
2023/09/13 00:16:12;;;;;;;18.73;14.95;;;;;;;;;;4988146;28;20187;-65
2023/09/13 00:18:37;;;;;;;26.25;16.02;;;;;;;;;;4975609;28;20214;-65
2023/09/13 00:21:02;;;;;;;24.40;16.98;;;;;;;;;;4992305;28;20266;-65
2023/09/13 00:23:28;;;;;;;23.17;16.33;;;;;;;;;;4996429;28;20179;-65
2023/09/13 00:25:53;;;;;;;21.77;16.35;;;;;;;;;;4991691;28;20200;-66
2023/09/13 00:28:18;;;;;;;24.17;16.38;;;;;;;;;;4993581;28;20180;-67
2023/09/13 00:30:43;;;;;;;25.42;17.02;;;;;;;;;;4991378;28;20250;-66
2023/09/13 00:33:09;;;;;;;21.77;16.70;;;;;;;;;;4994150;28;20180;-67
2023/09/13 00:35:34;;;;;;;24.10;16.55;;;;;;;;;;4992671;28;20253;-67
2023/09/13 00:37:59;;;;;;;25.02;17.08;;;;;;;;;;4995358;28;20647;-65
2023/09/13 00:40:24;;;;;;;23.77;17.67;;;;;;;;;;4992919;28;20194;-65
2023/09/13 00:42:49;;;;;;;29.23;17.88;;;;;;;;;;4985291;28;20176;-65
2023/09/13 00:45:15;;;;;;;21.67;16.25;;;;;;;;;;4991031;28;20179;-66
2023/09/13 00:47:40;;;;;;;24.40;16.52;;;;;;;;;;4996554;28;20567;-65
2023/09/13 00:50:08;;;;;;;21.67;15.50;;;;;;;;;;4990029;28;20253;-65
2023/09/13 00:52:33;;;;;;;20.27;13.93;;;;;;;;;;4991361;28;20270;-65
2023/09/13 00:54:58;;;;;;;18.27;14.73;;;;;;;;;;4982533;28;20726;-66
2023/09/13 00:57:24;;;;;;;19.70;12.93;;;;;;;;;;4991154;28;20190;-65
2023/09/13 00:59:49;;;;;;;15.70;11.45;;;;;;;;;;4985896;28;20590;-66
2023/09/13 01:02:14;;;;;;;20.45;14.05;;;;;;;;;;4991098;28;20239;-65
2023/09/13 01:04:40;;;;;;;20.23;12.38;;;;;;;;;;4992601;28;20246;-66
2023/09/13 01:07:08;;;;;;;17.05;12.88;;;;;;;;;;4988443;28;20194;-66
2023/09/13 01:09:34;;;;;;;19.98;13.68;;;;;;;;;;4991868;28;20195;-67
2023/09/13 01:12:03;;;;;;;19.23;14.02;;;;;;;;;;4986581;28;20602;-66
2023/09/13 01:14:28;;;;;;;24.70;15.00;;;;;;;;;;4988042;28;20227;-65
2023/09/13 01:17:12;;;;;;;18.65;13.98;;;;;;;;;;4993548;28;20264;-66
2023/09/13 01:19:41;;;;;;;17.27;13.43;;;;;;;;;;4982876;28;20270;-66
2023/09/13 01:22:25;;;;;;;25.17;15.85;;;;;;;;;;4986392;28;20180;-66
2023/09/13 01:25:02;;;;;;;21.40;15.63;;;;;;;;;;4986609;28;20203;-65
2023/09/13 01:27:39;;;;;;;23.75;16.80;;;;;;;;;;4991507;28;20175;-65
2023/09/13 01:30:07;;;;;;;21.95;15.45;;;;;;;;;;4987557;28;20234;-65
2023/09/13 01:32:35;;;;;;;19.17;13.73;;;;;;;;;;4993807;28;20171;-65
2023/09/13 01:35:00;;;;;;;20.42;15.00;;;;;;;;;;4990049;28;20208;-65
2023/09/13 01:37:26;;;;;;;31.42;15.25;;;;;;;;;;4988718;28;20194;-66
2023/09/13 01:39:51;;;;;;;17.13;13.63;;;;;;;;;;4989454;28;20192;-66
2023/09/13 01:42:16;;;;;;;17.70;13.32;;;;;;;;;;4988126;28;20188;-66
2023/09/13 01:44:43;;;;;;;14.38;10.88;;;;;;;;;;4989250;28;20509;-66
2023/09/13 01:47:08;;;;;;;21.30;12.98;;;;;;;;;;4987901;28;20183;-66
2023/09/13 01:49:34;;;;;;;15.10;11.95;;;;;;;;;;4986712;28;20589;-66
2023/09/13 01:51:59;;;;;;;20.95;13.68;;;;;;;;;;4991161;28;20198;-66
2023/09/13 01:54:25;;;;;;;18.05;13.43;;;;;;;;;;4986308;28;20404;-67
2023/09/13 01:56:50;;;;;;;21.85;13.25;;;;;;;;;;4978467;28;20173;-66
2023/09/13 01:59:15;;;;;;;16.13;13.60;;;;;;;;;;5004207;23;20245;-71
2023/09/13 02:01:40;;;;;;;21.75;15.07;;;;;;;;;;5008767;28;21105;-71
2023/09/13 02:04:06;;;;;;;19.50;14.00;;;;;;;;;;5009218;28;20262;-71
2023/09/13 02:06:31;;;;;;;19.65;14.70;;;;;;;;;;5001085;28;20646;-72
2023/09/13 02:08:56;;;;;;;24.20;16.10;;;;;;;;;;5001230;28;20615;-71
2023/09/13 02:11:22;;;;;;;21.23;16.80;;;;;;;;;;4987909;28;20238;-72
2023/09/13 02:13:50;;;;;;;25.40;16.83;;;;;;;;;;4991693;28;20203;-72
2023/09/13 02:16:24;;;;;;;21.63;15.23;;;;;;;;;;4991362;28;20194;-72
2023/09/13 02:18:50;;;;;;;27.38;16.30;;;;;;;;;;4991780;28;20174;-71
2023/09/13 02:21:16;;;;;;;22.55;16.67;;;;;;;;;;4990996;28;20263;-71
2023/09/13 02:23:42;;;;;;;24.33;15.13;;;;;;;;;;4991117;28;20206;-73
2023/09/13 02:26:07;;;;;;;22.40;16.20;;;;;;;;;;4992732;28;20218;-71
2023/09/13 02:28:33;;;;;;;25.85;17.77;;;;;;;;;;4977403;28;20199;-71
2023/09/13 02:30:58;;;;;;;27.52;17.30;;;;;;;;;;4983197;28;20203;-71
2023/09/13 02:33:23;;;;;;;26.05;17.13;;;;;;;;;;4980159;28;21013;-72
2023/09/13 02:35:48;;;;;;;28.77;18.00;;;;;;;;;;4992308;28;20210;-72
2023/09/13 02:38:14;;;;;;;23.85;16.30;;;;;;;;;;4993271;28;20182;-72
2023/09/13 02:40:39;;;;;;;26.20;17.17;;;;;;;;;;4986967;28;20250;-72
2023/09/13 02:43:04;;;;;;;25.48;17.67;;;;;;;;;;4988717;28;20332;-71
2023/09/13 02:45:30;;;;;;;28.27;18.38;;;;;;;;;;4989380;28;20186;-72
2023/09/13 02:47:55;;;;;;;25.98;17.10;;;;;;;;;;4988061;28;20187;-71
2023/09/13 02:50:21;;;;;;;28.88;18.90;;;;;;;;;;4990114;28;20291;-72
2023/09/13 02:52:46;;;;;;;34.67;19.00;;;;;;;;;;4985402;28;20291;-72
2023/09/13 02:55:11;;;;;;;31.73;18.08;;;;;;;;;;4988355;28;20258;-72
2023/09/13 02:57:36;;;;;;;26.58;17.83;;;;;;;;;;4982387;28;20188;-72
2023/09/13 03:00:04;;;;;;;27.92;17.70;;;;;;;;;;4989220;28;20208;-71
2023/09/13 03:02:29;;;;;;;25.90;17.83;;;;;;;;;;4978858;28;20176;-73
2023/09/13 03:04:54;;;;;;;30.55;17.95;;;;;;;;;;4991752;28;20266;-71
2023/09/13 03:07:20;;;;;;;28.58;17.48;;;;;;;;;;4987526;28;20261;-71
2023/09/13 03:09:45;;;;;;;27.50;16.88;;;;;;;;;;4984760;28;20256;-72
2023/09/13 03:12:11;;;;;;;26.38;16.90;;;;;;;;;;4988127;28;20172;-73
2023/09/13 03:14:36;;;;;;;28.73;18.50;;;;;;;;;;4985733;28;20192;-73
2023/09/13 03:17:02;;;;;;;22.75;15.38;;;;;;;;;;4985111;28;20180;-73
2023/09/13 03:19:29;;;;;;;31.98;18.92;;;;;;;;;;4986790;28;20191;-72
2023/09/13 03:21:54;;;;;;;29.17;18.70;;;;;;;;;;4986041;28;20183;-73
2023/09/13 03:24:19;;;;;;;35.10;20.60;;;;;;;;;;4985794;28;20195;-73
2023/09/13 03:26:44;;;;;;;31.52;19.48;;;;;;;;;;4991921;28;20188;-73
2023/09/13 03:29:10;;;;;;;30.98;19.10;;;;;;;;;;4991763;28;20204;-73
2023/09/13 03:31:36;;;;;;;33.17;20.55;;;;;;;;;;4994730;28;20564;-72
2023/09/13 03:34:02;;;;;;;43.15;22.80;;;;;;;;;;4987000;28;20257;-73
2023/09/13 03:36:27;;;;;;;40.60;23.63;;;;;;;;;;4982976;28;20255;-73
2023/09/13 03:38:53;;;;;;;39.83;22.52;;;;;;;;;;4991512;28;20578;-73
2023/09/13 03:41:19;;;;;;;37.70;21.92;;;;;;;;;;4982212;28;20177;-73
2023/09/13 03:43:44;;;;;;;35.47;21.50;;;;;;;;;;4983049;28;20660;-73
2023/09/13 03:46:10;;;;;;;41.88;23.85;;;;;;;;;;4991328;28;20202;-73
2023/09/13 03:48:36;;;;;;;39.95;21.85;;;;;;;;;;4993060;28;20578;-72
2023/09/13 03:51:01;;;;;;;43.00;23.98;;;;;;;;;;4986043;28;20203;-73
2023/09/13 03:53:26;;;;;;;40.75;23.83;;;;;;;;;;4983056;28;20198;-73
2023/09/13 03:55:52;;;;;;;48.67;25.17;;;;;;;;;;4992354;28;20674;-73
2023/09/13 03:58:18;;;;;;;45.40;23.77;;;;;;;;;;4993139;28;20254;-73
2023/09/13 04:00:43;;;;;;;42.85;23.27;;;;;;;;;;4993108;28;20203;-73
2023/09/13 04:03:08;;;;;;;49.65;25.77;;;;;;;;;;4992863;28;20214;-73
2023/09/13 04:05:33;;;;;;;48.63;25.70;;;;;;;;;;4991270;28;20186;-71
2023/09/13 04:07:59;;;;;;;51.65;25.33;;;;;;;;;;4992775;28;20219;-72
2023/09/13 04:10:24;;;;;;;48.83;25.92;;;;;;;;;;4984831;28;20195;-72
2023/09/13 04:12:49;;;;;;;50.97;25.10;;;;;;;;;;4980904;28;20188;-72
2023/09/13 04:15:15;;;;;;;47.35;26.65;;;;;;;;;;4989765;28;20226;-72
2023/09/13 04:17:40;;;;;;;54.00;26.85;;;;;;;;;;4991981;28;21445;-72
2023/09/13 04:20:06;;;;;;;53.40;27.05;;;;;;;;;;4991049;28;20211;-72
2023/09/13 04:22:31;;;;;;;49.42;24.27;;;;;;;;;;4990236;28;20172;-72
2023/09/13 04:24:56;;;;;;;53.83;26.75;;;;;;;;;;4986453;28;20191;-72
2023/09/13 04:27:25;;;;;;;61.53;26.33;;;;;;;;;;4982126;28;20180;-71
2023/09/13 04:29:51;;;;;;;52.60;26.35;;;;;;;;;;4984961;28;20324;-72
2023/09/13 04:32:16;;;;;;;49.28;26.27;;;;;;;;;;4992816;28;20180;-72
2023/09/13 04:34:41;;;;;;;49.08;27.50;;;;;;;;;;4982495;28;20208;-72
2023/09/13 04:37:07;;;;;;;55.45;27.02;;;;;;;;;;4990749;28;20643;-72
2023/09/13 04:39:32;;;;;;;54.78;30.77;;;;;;;;;;4984968;28;20192;-72
2023/09/13 04:41:58;;;;;;;52.42;26.95;;;;;;;;;;4987666;28;20299;-72
2023/09/13 04:44:23;;;;;;;55.78;30.15;;;;;;;;;;4983525;28;20203;-73
2023/09/13 04:46:49;;;;;;;55.42;28.67;;;;;;;;;;4988761;28;20180;-72
2023/09/13 04:49:14;;;;;;;57.58;28.67;;;;;;;;;;4990819;28;20746;-72
2023/09/13 04:51:39;;;;;;;49.72;26.70;;;;;;;;;;4983195;28;20683;-72
2023/09/13 04:54:04;;;;;;;55.47;29.10;;;;;;;;;;4982346;28;20210;-72
2023/09/13 04:56:30;;;;;;;59.17;29.38;;;;;;;;;;4991724;28;20182;-72
2023/09/13 04:58:55;;;;;;;54.38;29.45;;;;;;;;;;4993000;28;20180;-72
2023/09/13 05:01:20;;;;;;;57.83;31.10;;;;;;;;;;4982440;28;20308;-72
2023/09/13 05:03:46;;;;;;;61.63;29.23;;;;;;;;;;4989065;28;20552;-72
2023/09/13 05:06:11;;;;;;;56.13;29.95;;;;;;;;;;4987366;28;20186;-72
2023/09/13 05:08:36;;;;;;;60.83;31.13;;;;;;;;;;4990021;28;20230;-71
2023/09/13 05:11:02;;;;;;;63.33;30.92;;;;;;;;;;4992202;28;20593;-72
2023/09/13 05:13:27;;;;;;;58.20;29.73;;;;;;;;;;4985709;28;20172;-72
2023/09/13 05:15:52;;;;;;;58.63;29.10;;;;;;;;;;4986699;28;20199;-72
2023/09/13 05:18:17;;;;;;;49.30;28.65;;;;;;;;;;4982876;28;20176;-72
2023/09/13 05:20:43;;;;;;;54.72;30.35;;;;;;;;;;4987707;28;20651;-72
2023/09/13 05:23:08;;;;;;;67.65;29.25;;;;;;;;;;4989184;28;20556;-73
2023/09/13 05:25:33;;;;;;;49.42;27.50;;;;;;;;;;4990775;28;20241;-72
2023/09/13 05:27:59;;;;;;;50.47;26.95;;;;;;;;;;4992622;28;20180;-72
2023/09/13 05:30:25;;;;;;;54.38;28.63;;;;;;;;;;4993255;28;20245;-72
2023/09/13 05:32:50;;;;;;;51.47;28.13;;;;;;;;;;4991698;28;20211;-73
2023/09/13 05:35:16;;;;;;;47.30;26.88;;;;;;;;;;4980768;28;20211;-73
2023/09/13 05:37:41;;;;;;;51.83;27.88;;;;;;;;;;4990480;28;20225;-72
2023/09/13 05:40:07;;;;;;;44.55;26.25;;;;;;;;;;4986629;28;20204;-72
2023/09/13 05:42:33;;;;;;;36.83;19.27;;;;;;;;;;4991647;28;20181;-71
2023/09/13 05:44:59;;;;;;;19.77;10.35;;;;;;;;;;4990137;28;20322;-72
2023/09/13 05:47:24;;;;;;;16.73;7.70;;;;;;;;;;4993206;28;20266;-72
2023/09/13 05:49:49;;;;;;;4.55;2.90;;;;;;;;;;4988315;28;20715;-72
2023/09/13 05:52:14;;;;;;;6.15;2.40;;;;;;;;;;4992075;28;20651;-72
2023/09/13 05:54:39;;;;;;;4.40;1.27;;;;;;;;;;4993172;28;20706;-72
2023/09/13 05:57:05;;;;;;;4.72;1.17;;;;;;;;;;4992154;28;20176;-72
2023/09/13 05:59:35;;;;;;;3.05;1.15;;;;;;;;;;4991381;28;20211;-72
2023/09/13 06:02:00;;;;;;;1.73;0.60;;;;;;;;;;4984605;28;20266;-72
2023/09/13 06:04:25;;;;;;;4.07;0.70;;;;;;;;;;4991932;28;20310;-72
2023/09/13 06:06:50;;;;;;;4.93;1.10;;;;;;;;;;4990020;28;20207;-72
2023/09/13 06:09:21;;;;;;;2.45;0.77;;;;;;;;;;4990437;28;20197;-72
2023/09/13 06:11:47;;;;;;;3.72;0.47;;;;;;;;;;4991870;28;20186;-72
2023/09/13 06:14:12;;;;;;;1.90;0.50;;;;;;;;;;4983941;28;20203;-73
2023/09/13 06:16:37;;;;;;;1.40;0.75;;;;;;;;;;4985519;28;20240;-73
2023/09/13 06:19:02;;;;;;;3.00;0.28;;;;;;;;;;4989783;28;20254;-72
2023/09/13 06:21:28;;;;;;;1.63;0.50;;;;;;;;;;4999046;28;22030;-73
2023/09/13 06:23:53;;;;;;;0.85;0.50;;;;;;;;;;4981256;28;20179;-72
2023/09/13 06:26:18;;;;;;;1.38;0.40;;;;;;;;;;4992275;28;20184;-73
2023/09/13 06:28:43;;;;;;;1.63;0.60;;;;;;;;;;4986528;28;20187;-73
2023/09/13 06:31:09;;;;;;;2.55;0.60;;;;;;;;;;4991121;28;20215;-72
2023/09/13 06:33:34;;;;;;;3.42;1.02;;;;;;;;;;4990936;28;20191;-71
2023/09/13 06:35:59;;;;;;;5.10;0.90;;;;;;;;;;4991795;28;20207;-72
2023/09/13 06:38:24;;;;;;;2.20;0.70;;;;;;;;;;4986988;28;20239;-71
2023/09/13 06:40:51;;;;;;;2.80;0.47;;;;;;;;;;4991467;28;20249;-72
2023/09/13 06:43:18;;;;;;;2.35;0.60;;;;;;;;;;4985596;28;20183;-73
2023/09/13 06:45:43;;;;;;;3.03;0.90;;;;;;;;;;4992201;28;20275;-72
2023/09/13 06:48:08;;;;;;;1.25;0.40;;;;;;;;;;4988964;28;20734;-72
2023/09/13 06:50:33;;;;;;;0.95;0.40;;;;;;;;;;4995560;28;20207;-71
2023/09/13 06:52:59;;;;;;;3.20;0.60;;;;;;;;;;4993712;28;20264;-72
2023/09/13 06:55:24;;;;;;;3.10;0.85;;;;;;;;;;5000954;28;20211;-71
2023/09/13 06:57:51;;;;;;;1.00;0.65;;;;;;;;;;5001552;28;20283;-72
2023/09/13 07:00:16;;;;;;;1.00;0.70;;;;;;;;;;4996564;28;20227;-71
2023/09/13 07:02:41;;;;;;;3.70;1.73;;;;;;;;;;4995042;28;20175;-72
2023/09/13 07:05:07;;;;;;;0.77;0.60;;;;;;;;;;4994470;28;20184;-72
2023/09/13 07:07:32;;;;;;;2.83;0.98;;;;;;;;;;4992626;28;20191;-72
2023/09/13 07:09:57;;;;;;;2.08;0.85;;;;;;;;;;4991973;28;20252;-72
2023/09/13 07:12:22;;;;;;;3.88;0.93;;;;;;;;;;4989728;28;20184;-72
2023/09/13 07:14:48;;;;;;;3.58;0.80;;;;;;;;;;4989607;28;20294;-71
2023/09/13 07:17:17;;;;;;;3.30;0.82;;;;;;;;;;4996689;28;20558;-71
2023/09/13 07:19:43;;;;;;;4.45;0.80;;;;;;;;;;4996197;28;20553;-71
2023/09/13 07:22:08;;;;;;;1.65;1.13;;;;;;;;;;4992278;28;20207;-72
2023/09/13 07:24:33;;;;;;;3.33;0.85;;;;;;;;;;4991806;28;20175;-72
2023/09/13 07:26:59;;;;;;;2.03;0.82;;;;;;;;;;4992710;28;20172;-72
2023/09/13 07:29:24;;;;;;;2.00;0.93;;;;;;;;;;4986810;28;20671;-71
2023/09/13 07:31:49;;;;;;;1.63;0.80;;;;;;;;;;4990153;28;20186;-71
2023/09/13 07:34:15;;;;;;;1.08;0.60;;;;;;;;;;4990589;28;20206;-71
2023/09/13 07:36:40;;;;;;;2.42;0.82;;;;;;;;;;4984267;28;20176;-72
2023/09/13 07:39:06;;;;;;;3.28;0.85;;;;;;;;;;4985864;28;20199;-72
2023/09/13 07:41:32;;;;;;;3.25;1.10;;;;;;;;;;4991030;28;20183;-72
2023/09/13 07:43:57;;;;;;;1.50;1.05;;;;;;;;;;4988549;28;20180;-70
2023/09/13 07:46:22;;;;;;;1.20;0.70;;;;;;;;;;4990217;28;20187;-73
2023/09/13 07:48:47;;;;;;;1.52;0.60;;;;;;;;;;4990103;28;20606;-72
2023/09/13 07:51:13;;;;;;;4.63;1.17;;;;;;;;;;4990081;28;20183;-71
2023/09/13 07:53:38;;;;;;;1.08;0.70;;;;;;;;;;4987462;28;20713;-71
2023/09/13 07:56:03;;;;;;;2.40;0.88;;;;;;;;;;4991510;28;20207;-71
2023/09/13 07:58:28;;;;;;;1.83;0.82;;;;;;;;;;4992196;28;20206;-71
2023/09/13 08:00:54;;;;;;;1.77;1.02;;;;;;;;;;5014244;23;20653;-68
2023/09/13 08:03:20;;;;;;;2.53;1.10;;;;;;;;;;5006889;28;20194;-66
2023/09/13 08:05:47;;;;;;;2.35;0.88;;;;;;;;;;5005069;28;20237;-67
2023/09/13 08:08:14;;;;;;;1.83;0.80;;;;;;;;;;5001714;28;20187;-66
2023/09/13 08:10:40;;;;;;;5.35;1.70;;;;;;;;;;4998225;28;20206;-66
2023/09/13 08:13:06;;;;;;;1.30;0.90;;;;;;;;;;4988170;28;20271;-67
2023/09/13 08:15:31;;;;;;;2.25;0.90;;;;;;;;;;4999052;28;20302;-66
2023/09/13 08:17:56;;;;;;;4.05;1.13;;;;;;;;;;4997088;28;20176;-66
2023/09/13 08:20:21;;;;;;;1.00;0.68;;;;;;;;;;4994746;28;20277;-65
2023/09/13 08:22:47;;;;;;;1.58;0.90;;;;;;;;;;4993709;28;20171;-65
2023/09/13 08:25:12;;;;;;;5.22;1.08;;;;;;;;;;4989737;28;20346;-65
2023/09/13 08:27:37;;;;;;;2.90;0.90;;;;;;;;;;5000628;28;20622;-65
2023/09/13 08:30:04;;;;;;;3.22;1.10;;;;;;;;;;4998407;28;20214;-66
2023/09/13 08:32:29;;;;;;;1.52;0.68;;;;;;;;;;4993855;28;20180;-66
2023/09/13 08:34:55;;;;;;;2.25;0.73;;;;;;;;;;4999982;28;20209;-66
2023/09/13 08:37:20;;;;;;;2.00;0.77;;;;;;;;;;4995280;28;20359;-66
2023/09/13 08:39:46;;;;;;;1.25;0.80;;;;;;;;;;4991864;28;20271;-66
2023/09/13 08:42:11;;;;;;;4.47;0.85;;;;;;;;;;4987058;28;20210;-66
2023/09/13 08:44:37;;;;;;;2.47;0.80;;;;;;;;;;4993944;28;20189;-66
2023/09/13 08:47:04;;;;;;;2.28;0.68;;;;;;;;;;4996163;28;20627;-66
2023/09/13 08:49:29;;;;;;;1.73;0.50;;;;;;;;;;4996712;28;20206;-66
2023/09/13 08:51:55;;;;;;;4.75;0.93;;;;;;;;;;4992579;28;20267;-65
2023/09/13 08:54:21;;;;;;;1.63;0.60;;;;;;;;;;4999492;28;20254;-66
2023/09/13 08:56:46;;;;;;;1.95;0.70;;;;;;;;;;4997177;28;20191;-67
2023/09/13 08:59:15;;;;;;;1.80;0.88;;;;;;;;;;4995787;28;20219;-65
2023/09/13 09:01:43;;;;;;;1.00;0.55;;;;;;;;;;4994583;28;20180;-66
2023/09/13 09:04:09;;;;;;;1.83;0.80;;;;;;;;;;4994384;28;20191;-66
2023/09/13 09:06:35;;;;;;;2.08;0.80;;;;;;;;;;4987393;28;20183;-66
2023/09/13 09:09:00;;;;;;;4.50;1.23;;;;;;;;;;4992812;28;20242;-66
2023/09/13 09:11:26;;;;;;;1.73;0.90;;;;;;;;;;4998650;28;20205;-66
2023/09/13 09:13:57;;;;;;;4.70;0.70;;;;;;;;;;4976892;28;20234;-66
2023/09/13 09:16:23;;;;;;;4.82;0.65;;;;;;;;;;4994563;28;20176;-66
2023/09/13 09:18:50;;;;;;;2.40;1.10;;;;;;;;;;4989099;28;20567;-65
2023/09/13 09:21:16;;;;;;;2.47;1.30;;;;;;;;;;4995906;28;20227;-65
2023/09/13 09:23:42;;;;;;;2.80;1.08;;;;;;;;;;4998089;28;20180;-65
2023/09/13 09:26:07;;;;;;;1.08;0.73;;;;;;;;;;4991136;28;20318;-65
2023/09/13 09:28:32;;;;;;;3.28;1.17;;;;;;;;;;4994228;28;20670;-65
2023/09/13 09:30:59;;;;;;;4.32;1.33;;;;;;;;;;4996144;28;20194;-66
2023/09/13 09:33:26;;;;;;;1.55;1.00;;;;;;;;;;5000767;28;20192;-66
2023/09/13 09:35:55;;;;;;;1.08;0.80;;;;;;;;;;4992342;28;20222;-66
2023/09/13 09:38:22;;;;;;;2.80;1.00;;;;;;;;;;4991409;28;20429;-65
2023/09/13 09:40:47;;;;;;;2.20;0.70;;;;;;;;;;4996496;28;20202;-67
2023/09/13 09:43:12;;;;;;;2.38;1.10;;;;;;;;;;4997102;28;20175;-66
2023/09/13 09:45:37;;;;;;;4.70;1.48;;;;;;;;;;4987868;28;21157;-66
2023/09/13 09:48:03;;;;;;;3.90;1.13;;;;;;;;;;4992917;28;20650;-66
2023/09/13 09:50:30;;;;;;;3.25;1.05;;;;;;;;;;4993115;28;20255;-65
2023/09/13 09:52:56;;;;;;;2.72;0.93;;;;;;;;;;4995285;28;20175;-66
2023/09/13 09:55:24;;;;;;;2.00;1.02;;;;;;;;;;4991624;28;20222;-66
2023/09/13 09:57:50;;;;;;;3.97;1.30;;;;;;;;;;4993358;28;20278;-66
2023/09/13 10:00:15;;;;;;;2.10;1.00;;;;;;;;;;4996846;28;20298;-66
2023/09/13 10:02:42;;;;;;;2.63;1.52;;;;;;;;;;5001959;28;20179;-66
2023/09/13 10:05:08;;;;;;;5.90;1.13;;;;;;;;;;4996639;28;20179;-66
2023/09/13 10:07:42;;;;;;;3.03;1.52;;;;;;;;;;4970868;28;20251;-65
2023/09/13 10:10:09;;;;;;;1.60;1.05;;;;;;;;;;4987907;28;20208;-66
2023/09/13 10:12:44;;;;;;;2.33;1.40;;;;;;;;;;4990001;28;20186;-66
2023/09/13 10:15:10;;;;;;;2.05;1.13;;;;;;;;;;4986369;28;20580;-65
2023/09/13 10:17:36;;;;;;;3.30;0.95;;;;;;;;;;4983860;28;20177;-65
2023/09/13 10:20:03;;;;;;;3.63;1.25;;;;;;;;;;4984127;28;20287;-66
2023/09/13 10:22:30;;;;;;;1.60;1.02;;;;;;;;;;4988089;28;20259;-65
2023/09/13 10:24:57;;;;;;;3.40;1.20;;;;;;;;;;4985249;28;20179;-65
2023/09/13 10:27:24;;;;;;;2.05;1.17;;;;;;;;;;4987558;28;20191;-65
2023/09/13 10:29:57;;;;;;;3.22;1.45;;;;;;;;;;4989742;28;20747;-66
2023/09/13 10:32:23;;;;;;;2.35;1.00;;;;;;;;;;4991186;28;20673;-65
2023/09/13 10:34:52;;;;;;;4.22;1.00;;;;;;;;;;4992078;28;20630;-66
2023/09/13 10:37:38;;;;;;;2.53;1.40;;;;;;;;;;4991671;28;20643;-66
2023/09/13 10:40:16;;;;;;;2.78;1.30;;;;;;;;;;4990975;28;20286;-65
2023/09/13 10:42:42;;;;;;;5.72;1.10;;;;;;;;;;4981553;28;20648;-64
2023/09/13 10:45:08;;;;;;;5.57;1.55;;;;;;;;;;4992360;28;20210;-66
2023/09/13 10:47:35;;;;;;;4.18;1.40;;;;;;;;;;4994226;28;20234;-65
2023/09/13 10:50:01;;;;;;;4.35;1.27;;;;;;;;;;4995440;28;20215;-66
2023/09/13 10:52:27;;;;;;;8.00;1.23;;;;;;;;;;4990544;28;20651;-66
2023/09/13 10:54:53;;;;;;;5.30;0.87;;;;;;;;;;4989183;28;20212;-66
2023/09/13 10:57:19;;;;;;;3.83;0.85;;;;;;;;;;4988296;28;20429;-65
2023/09/13 10:59:45;;;;;;;1.77;0.95;;;;;;;;;;4986074;28;20770;-65
2023/09/13 11:02:10;;;;;;;1.63;0.90;;;;;;;;;;4985649;28;20435;-66
2023/09/13 11:04:36;;;;;;;2.40;1.00;;;;;;;;;;4984446;28;20175;-65
2023/09/13 11:07:04;;;;;;;1.90;0.93;;;;;;;;;;4985863;28;20201;-66
2023/09/13 11:09:30;;;;;;;5.07;1.10;;;;;;;;;;4985242;28;20223;-67
2023/09/13 11:11:56;;;;;;;3.92;1.30;;;;;;;;;;4982274;28;20654;-66
2023/09/13 11:14:28;;;;;;;1.98;0.85;;;;;;;;;;4991342;28;20283;-66
2023/09/13 11:16:54;;;;;;;4.20;0.95;;;;;;;;;;4983872;28;20317;-66
2023/09/13 11:19:27;;;;;;;3.58;1.30;;;;;;;;;;4989776;28;20179;-65
2023/09/13 11:21:57;;;;;;;3.45;1.20;;;;;;;;;;4991044;28;20174;-66
2023/09/13 11:24:36;;;;;;;4.60;1.00;;;;;;;;;;4988791;28;20574;-64
2023/09/13 11:27:09;;;;;;;2.35;0.85;;;;;;;;;;4994439;28;20277;-66
2023/09/13 11:29:39;;;;;;;3.30;1.48;;;;;;;;;;4992091;28;20272;-66
2023/09/13 11:32:04;;;;;;;3.67;1.25;;;;;;;;;;4990646;28;20187;-66
2023/09/13 11:34:33;;;;;;;3.38;1.02;;;;;;;;;;4986463;28;20204;-65
2023/09/13 11:37:00;;;;;;;2.13;1.20;;;;;;;;;;4995300;28;20272;-66
2023/09/13 11:39:26;;;;;;;5.15;1.35;;;;;;;;;;4984316;28;20204;-65
2023/09/13 11:41:53;;;;;;;3.40;1.33;;;;;;;;;;4987718;28;20168;-66
2023/09/13 11:44:19;;;;;;;5.05;1.30;;;;;;;;;;4985797;28;20646;-66
2023/09/13 11:46:47;;;;;;;6.05;1.50;;;;;;;;;;4991742;28;20565;-65
2023/09/13 11:49:17;;;;;;;3.67;1.42;;;;;;;;;;4969535;28;20203;-66
2023/09/13 11:51:46;;;;;;;7.65;2.42;;;;;;;;;;4986200;28;20262;-64
2023/09/13 11:54:18;;;;;;;2.45;1.15;;;;;;;;;;4986767;28;20207;-65
2023/09/13 11:56:44;;;;;;;3.22;1.40;;;;;;;;;;4995385;28;20608;-65
2023/09/13 11:59:10;;;;;;;3.45;1.50;;;;;;;;;;4989539;28;20179;-66
2023/09/13 12:01:41;;;;;;;2.40;1.63;;;;;;;;;;4991085;28;20572;-64
2023/09/13 12:04:08;;;;;;;6.57;1.85;;;;;;;;;;4990066;28;20726;-65
2023/09/13 12:06:43;;;;;;;2.85;2.22;;;;;;;;;;4980037;28;20190;-65
2023/09/13 12:09:12;;;;;;;3.78;1.65;;;;;;;;;;4986530;28;20186;-66
2023/09/13 12:11:39;;;;;;;3.63;1.98;;;;;;;;;;4984356;28;20334;-66
2023/09/13 12:14:04;;;;;;;2.83;1.50;;;;;;;;;;4993371;28;20179;-65
2023/09/13 12:16:30;;;;;;;2.30;1.67;;;;;;;;;;4987217;28;20652;-66
2023/09/13 12:18:56;;;;;;;2.92;1.75;;;;;;;;;;4990861;28;20176;-66
2023/09/13 12:21:21;;;;;;;2.60;1.70;;;;;;;;;;4987118;28;20212;-66
2023/09/13 12:23:46;;;;;;;2.67;1.87;;;;;;;;;;4983818;28;20179;-66
2023/09/13 12:26:13;;;;;;;4.93;1.67;;;;;;;;;;4983665;28;20421;-66
2023/09/13 12:28:39;;;;;;;4.82;1.83;;;;;;;;;;4990704;28;20405;-66
2023/09/13 12:31:09;;;;;;;3.97;2.00;;;;;;;;;;4992980;28;20242;-65
2023/09/13 12:33:35;;;;;;;3.17;2.00;;;;;;;;;;4993048;28;20606;-67
2023/09/13 12:36:03;;;;;;;3.38;2.50;;;;;;;;;;4991173;28;20223;-65
2023/09/13 12:38:48;;;;;;;4.03;2.42;;;;;;;;;;4991150;28;20548;-66
2023/09/13 12:41:18;;;;;;;7.03;3.72;;;;;;;;;;4993042;28;20201;-67
2023/09/13 12:43:44;;;;;;;5.18;2.47;;;;;;;;;;4986479;28;20180;-66
2023/09/13 12:46:14;;;;;;;4.95;3.00;;;;;;;;;;4990283;28;20688;-66
2023/09/13 12:48:40;;;;;;;4.10;2.88;;;;;;;;;;4991409;28;20256;-66
2023/09/13 12:51:05;;;;;;;3.95;2.55;;;;;;;;;;4991912;28;20195;-66
2023/09/13 12:53:31;;;;;;;3.33;2.35;;;;;;;;;;4991914;28;20179;-67
2023/09/13 12:55:57;;;;;;;6.15;2.75;;;;;;;;;;4986938;28;20199;-66
2023/09/13 12:58:22;;;;;;;4.45;2.30;;;;;;;;;;4990540;28;20183;-65
2023/09/13 13:00:51;;;;;;;3.75;2.13;;;;;;;;;;4993354;28;20305;-66
2023/09/13 13:03:17;;;;;;;3.10;2.10;;;;;;;;;;4985122;28;20180;-66
2023/09/13 13:05:43;;;;;;;3.17;2.03;;;;;;;;;;4983463;28;20192;-66
2023/09/13 13:08:09;;;;;;;3.65;2.13;;;;;;;;;;4979879;28;20278;-67
2023/09/13 13:10:51;;;;;;;4.45;2.53;;;;;;;;;;4987908;28;20195;-66
2023/09/13 13:13:16;;;;;;;5.45;2.85;;;;;;;;;;4989704;28;20629;-66
2023/09/13 13:15:41;;;;;;;4.45;2.38;;;;;;;;;;4985183;28;20253;-67
2023/09/13 13:18:08;;;;;;;2.50;1.90;;;;;;;;;;4993314;28;20180;-66
2023/09/13 13:20:34;;;;;;;3.42;2.20;;;;;;;;;;4995944;28;20207;-66
2023/09/13 13:22:59;;;;;;;3.97;2.05;;;;;;;;;;4990509;28;20279;-66
2023/09/13 13:25:24;;;;;;;5.70;2.20;;;;;;;;;;4984255;28;20554;-66
2023/09/13 13:27:51;;;;;;;4.37;2.17;;;;;;;;;;4988462;28;20483;-66
2023/09/13 13:30:16;;;;;;;3.58;2.05;;;;;;;;;;4993948;28;20425;-66
2023/09/13 13:32:41;;;;;;;4.18;2.17;;;;;;;;;;4987371;28;20190;-66
2023/09/13 13:35:07;;;;;;;2.70;1.90;;;;;;;;;;4994771;28;20245;-67
2023/09/13 13:37:32;;;;;;;4.88;2.30;;;;;;;;;;4991631;28;20681;-66
2023/09/13 13:39:57;;;;;;;4.05;2.20;;;;;;;;;;4994050;28;20204;-66
2023/09/13 13:42:22;;;;;;;4.05;1.80;;;;;;;;;;4993757;28;20183;-66
2023/09/13 13:44:47;;;;;;;3.27;1.87;;;;;;;;;;4991420;28;20183;-66
2023/09/13 13:47:13;;;;;;;3.90;1.80;;;;;;;;;;4992422;28;20418;-67
2023/09/13 13:49:38;;;;;;;4.97;2.47;;;;;;;;;;4991718;28;20216;-66
2023/09/13 13:52:03;;;;;;;2.47;1.70;;;;;;;;;;4993992;28;20413;-66
2023/09/13 13:54:29;;;;;;;3.15;1.92;;;;;;;;;;4993616;28;20254;-66
2023/09/13 13:56:54;;;;;;;3.10;1.97;;;;;;;;;;4995815;28;20574;-66
2023/09/13 13:59:19;;;;;;;3.28;1.98;;;;;;;;;;4990066;28;20425;-66
2023/09/13 14:01:45;;;;;;;3.20;2.25;;;;;;;;;;5020055;23;20241;-72
2023/09/13 14:04:10;;;;;;;6.65;2.30;;;;;;;;;;5015058;28;20229;-71
2023/09/13 14:06:35;;;;;;;6.75;2.10;;;;;;;;;;5002217;28;20187;-71
2023/09/13 14:09:04;;;;;;;3.80;2.47;;;;;;;;;;5001033;28;20195;-71
2023/09/13 14:11:29;;;;;;;5.30;2.20;;;;;;;;;;5002432;28;20697;-71
2023/09/13 14:13:54;;;;;;;5.55;1.52;;;;;;;;;;4990785;28;20184;-72
2023/09/13 14:16:20;;;;;;;5.68;1.90;;;;;;;;;;4987897;28;20267;-71
2023/09/13 14:18:45;;;;;;;3.30;1.60;;;;;;;;;;4984292;28;20648;-71
2023/09/13 14:21:10;;;;;;;2.00;1.40;;;;;;;;;;4989951;28;20673;-71
2023/09/13 14:23:35;;;;;;;2.97;2.08;;;;;;;;;;4983392;28;20908;-71
2023/09/13 14:26:01;;;;;;;3.25;2.03;;;;;;;;;;4986356;28;20891;-72
2023/09/13 14:28:26;;;;;;;3.78;2.13;;;;;;;;;;4983528;28;20687;-72